createdAt,value
2022-08-27T00:01:28.886Z,34.95
2022-08-27T00:03:56.455Z,33.78
2022-08-27T00:06:24.725Z,33.53
2022-08-27T00:08:52.613Z,34.33
2022-08-27T00:11:20.480Z,33.10
2022-08-27T00:13:48.008Z,35.25
2022-08-27T00:16:16.393Z,35.88
2022-08-27T00:18:48.028Z,37.35
2022-08-27T00:21:16.077Z,38.53
2022-08-27T00:23:43.371Z,35.70
2022-08-27T00:26:10.616Z,36.33
2022-08-27T00:28:37.945Z,34.35
2022-08-27T00:31:04.834Z,32.22
2022-08-27T00:33:31.966Z,32.05
2022-08-27T00:35:58.827Z,33.80
2022-08-27T00:38:25.553Z,35.10
2022-08-27T00:40:53.479Z,39.83
2022-08-27T00:43:23.815Z,37.80
2022-08-27T00:45:51.902Z,40.90
2022-08-27T00:48:22.188Z,40.50
2022-08-27T00:50:52.068Z,40.03
2022-08-27T00:53:24.353Z,39.75
2022-08-27T00:55:59.968Z,40.30
2022-08-27T00:58:38.031Z,42.13
2022-08-27T01:01:11.413Z,41.17
2022-08-27T01:03:39.567Z,41.63
2022-08-27T01:06:09.928Z,42.08
2022-08-27T01:08:38.797Z,43.65
2022-08-27T01:11:05.885Z,43.65
2022-08-27T01:13:58.913Z,44.55
2022-08-27T01:16:27.379Z,46.38
2022-08-27T01:18:55.299Z,44.50
2022-08-27T01:21:34.538Z,44.17
2022-08-27T01:24:07.018Z,44.60
2022-08-27T01:29:01.076Z,43.05
2022-08-27T01:31:29.386Z,43.75
2022-08-27T01:34:03.643Z,44.53
2022-08-27T01:36:30.315Z,45.25
2022-08-27T01:38:57.574Z,45.15
2022-08-27T01:41:25.373Z,48.28
2022-08-27T01:43:52.572Z,44.65
2022-08-27T01:46:24.482Z,45.90
2022-08-27T01:48:51.496Z,43.65
2022-08-27T01:51:18.503Z,46.60
2022-08-27T01:53:45.454Z,46.80
2022-08-27T01:56:17.717Z,48.40
2022-08-27T02:01:45.957Z,45.05
2022-08-27T02:04:15.428Z,49.30
2022-08-27T02:07:03.226Z,49.63
2022-08-27T02:09:50.287Z,47.33
2022-08-27T02:12:26.095Z,48.72
2022-08-27T02:14:58.955Z,47.63
2022-08-27T02:17:30.918Z,49.15
2022-08-27T02:20:07.796Z,47.58
2022-08-27T02:22:35.507Z,49.38
2022-08-27T02:25:07.151Z,51.00
2022-08-27T02:27:43.583Z,50.25
2022-08-27T02:30:18.259Z,50.17
2022-08-27T02:32:49.814Z,50.88
2022-08-27T02:35:25.074Z,50.45
2022-08-27T02:38:03.765Z,50.85
2022-08-27T02:40:31.428Z,50.83
2022-08-27T02:43:09.952Z,51.47
2022-08-27T02:46:17.301Z,52.33
2022-08-27T02:48:49.439Z,51.95
2022-08-27T02:54:19.785Z,51.28
2022-08-27T02:57:02.045Z,51.75
2022-08-27T02:59:41.177Z,48.58
2022-08-27T03:02:24.214Z,49.90
2022-08-27T03:05:01.023Z,51.03
2022-08-27T03:07:32.681Z,53.50
2022-08-27T03:10:05.431Z,52.80
2022-08-27T03:12:47.308Z,50.92
2022-08-27T03:15:19.787Z,50.28
2022-08-27T03:18:19.386Z,51.10
2022-08-27T03:20:58.120Z,48.00
2022-08-27T03:23:29.761Z,48.45
2022-08-27T03:26:03.339Z,50.90
2022-08-27T03:28:37.760Z,47.80
2022-08-27T03:31:09.288Z,49.38
2022-08-27T03:33:42.752Z,48.55
2022-08-27T03:36:16.055Z,46.63
2022-08-27T03:38:46.599Z,45.05
2022-08-27T03:41:18.030Z,45.00
2022-08-27T03:43:48.125Z,44.80
2022-08-27T03:46:33.687Z,43.05
2022-08-27T03:49:13.354Z,41.95
2022-08-27T03:51:44.692Z,38.90
2022-08-27T03:54:19.355Z,38.45
2022-08-27T03:56:55.517Z,39.03
2022-08-27T03:59:36.857Z,36.17
2022-08-27T04:02:09.355Z,37.17
2022-08-27T04:04:41.952Z,34.80
2022-08-27T04:07:14.531Z,36.08
2022-08-27T04:09:53.664Z,36.60
2022-08-27T04:12:31.106Z,35.72
2022-08-27T04:17:41.496Z,36.50
2022-08-27T04:20:35.959Z,38.78
2022-08-27T04:23:19.309Z,37.97
2022-08-27T04:25:50.966Z,38.47
2022-08-27T04:28:21.396Z,39.78
2022-08-27T04:30:51.297Z,39.03
2022-08-27T04:33:19.011Z,39.25
2022-08-27T04:36:03.058Z,40.00
2022-08-27T04:38:36.504Z,39.53
2022-08-27T04:41:23.521Z,42.47
2022-08-27T04:44:05.638Z,42.03
2022-08-27T04:46:36.812Z,42.58
2022-08-27T04:49:18.444Z,43.70
2022-08-27T04:51:57.042Z,41.75
2022-08-27T04:54:32.982Z,45.33
2022-08-27T04:57:06.396Z,43.50
2022-08-27T04:59:45.240Z,42.20
2022-08-27T05:02:16.995Z,46.30
2022-08-27T05:04:59.408Z,44.58
2022-08-27T05:07:35.630Z,43.72
2022-08-27T05:10:14.875Z,44.45
2022-08-27T05:12:46.671Z,44.53
2022-08-27T05:15:28.752Z,42.85
2022-08-27T05:18:10.631Z,45.38
2022-08-27T05:20:47.218Z,43.38
2022-08-27T05:23:19.028Z,43.03
2022-08-27T05:25:52.735Z,41.22
2022-08-27T05:28:27.861Z,44.20
2022-08-27T05:31:03.977Z,43.70
2022-08-27T05:33:32.688Z,44.63
2022-08-27T05:36:03.321Z,44.42
2022-08-27T05:38:31.797Z,40.90
2022-08-27T05:41:09.016Z,40.95
2022-08-27T05:43:50.562Z,45.22
2022-08-27T05:46:42.737Z,46.08
2022-08-27T05:49:13.535Z,44.65
2022-08-27T05:51:48.275Z,43.22
2022-08-27T05:54:23.926Z,42.28
2022-08-27T05:57:06.435Z,40.50
2022-08-27T05:59:57.743Z,40.13
2022-08-27T06:02:34.457Z,40.97
2022-08-27T06:05:11.815Z,39.35
2022-08-27T06:07:48.849Z,40.30
2022-08-27T06:10:23.275Z,39.90
2022-08-27T06:12:56.912Z,41.33
2022-08-27T06:15:26.936Z,39.53
2022-08-27T06:17:59.974Z,41.00
2022-08-27T06:20:38.443Z,39.67
2022-08-27T06:23:09.799Z,40.97
2022-08-27T06:25:56.193Z,42.67
2022-08-27T06:28:32.360Z,40.92
2022-08-27T06:31:17.289Z,39.67
2022-08-27T06:33:47.853Z,39.35
2022-08-27T06:36:25.474Z,39.05
2022-08-27T06:39:01.348Z,40.35
2022-08-27T06:41:32.135Z,40.13
2022-08-27T06:43:59.796Z,38.65
2022-08-27T06:46:31.028Z,40.22
2022-08-27T06:49:05.565Z,39.67
2022-08-27T06:51:38.756Z,37.10
2022-08-27T06:54:15.481Z,39.80
2022-08-27T06:56:58.875Z,37.90
2022-08-27T06:59:32.260Z,37.80
2022-08-27T07:02:05.653Z,39.28
2022-08-27T07:04:56.558Z,39.50
2022-08-27T07:07:55.372Z,39.35
2022-08-27T07:10:32.045Z,38.60
2022-08-27T07:13:09.848Z,36.88
2022-08-27T07:15:46.576Z,37.50
2022-08-27T07:18:27.344Z,36.20
2022-08-27T07:21:05.605Z,35.55
2022-08-27T07:23:43.405Z,35.17
2022-08-27T07:26:13.860Z,36.47
2022-08-27T07:28:50.163Z,36.42
2022-08-27T07:31:25.394Z,36.58
2022-08-27T07:34:05.791Z,34.50
2022-08-27T07:36:38.452Z,34.65
2022-08-27T07:39:08.468Z,32.60
2022-08-27T07:42:00.893Z,36.33
2022-08-27T07:44:34.396Z,36.67
2022-08-27T07:47:03.511Z,35.45
2022-08-27T07:49:32.184Z,36.42
2022-08-27T07:52:23.617Z,37.30
2022-08-27T07:54:54.758Z,39.10
2022-08-27T07:57:22.303Z,38.95
2022-08-27T07:59:57.043Z,44.13
2022-08-27T08:02:24.143Z,46.10
2022-08-27T08:04:51.693Z,48.80
2022-08-27T08:07:18.594Z,49.97
2022-08-27T08:09:45.274Z,51.42
2022-08-27T08:12:12.010Z,51.13
2022-08-27T08:14:38.728Z,48.92
2022-08-27T08:17:05.628Z,47.75
2022-08-27T08:19:36.861Z,49.10
2022-08-27T08:22:05.789Z,46.55
2022-08-27T08:24:34.373Z,44.90
2022-08-27T08:27:05.093Z,42.55
2022-08-27T08:29:33.753Z,44.47
2022-08-27T08:32:00.625Z,44.53
2022-08-27T08:34:29.031Z,44.30
2022-08-27T08:36:55.694Z,47.65
2022-08-27T08:39:23.894Z,46.47
2022-08-27T08:41:56.561Z,46.17
2022-08-27T08:44:49.631Z,46.38
2022-08-27T08:47:27.261Z,48.10
2022-08-27T08:50:05.733Z,45.78
2022-08-27T08:52:35.657Z,48.90
2022-08-27T08:55:25.817Z,48.42
2022-08-27T08:58:00.093Z,50.28
2022-08-27T09:00:27.310Z,48.83
2022-08-27T09:02:54.965Z,49.53
2022-08-27T09:05:24.070Z,48.25
2022-08-27T09:08:34.056Z,49.55
2022-08-27T09:11:14.052Z,49.40
2022-08-27T09:13:43.298Z,48.28
2022-08-27T09:16:10.238Z,49.38
2022-08-27T09:18:40.925Z,48.83
2022-08-27T09:21:29.978Z,49.80
2022-08-27T09:24:14.842Z,49.45
2022-08-27T09:26:44.031Z,49.75
2022-08-27T09:29:17.478Z,47.78
2022-08-27T09:31:54.099Z,49.97
2022-08-27T09:34:30.827Z,50.00
2022-08-27T09:37:04.473Z,49.45
2022-08-27T09:40:23.184Z,49.67
2022-08-27T09:43:19.830Z,48.13
2022-08-27T09:46:17.977Z,46.75
2022-08-27T09:48:58.177Z,51.33
2022-08-27T09:51:32.503Z,46.53
2022-08-27T09:54:09.560Z,48.97
2022-08-27T09:56:54.017Z,49.28
2022-08-27T09:59:35.991Z,50.03
2022-08-27T10:02:08.072Z,50.83
2022-08-27T10:04:55.763Z,51.38
2022-08-27T10:07:54.350Z,47.90
2022-08-27T10:10:58.925Z,49.80
2022-08-27T10:13:45.771Z,47.40
2022-08-27T10:16:51.033Z,49.33
2022-08-27T10:19:58.562Z,48.83
2022-08-27T10:22:41.740Z,49.55
2022-08-27T10:25:36.556Z,48.40
2022-08-27T10:28:40.504Z,46.38
2022-08-27T10:31:45.361Z,45.80
2022-08-27T10:34:29.503Z,46.20
2022-08-27T10:37:36.718Z,47.58
2022-08-27T10:40:27.693Z,48.08
2022-08-27T10:43:24.594Z,49.65
2022-08-27T10:46:06.690Z,48.88
2022-08-27T10:49:00.412Z,46.58
2022-08-27T10:52:18.667Z,46.47
2022-08-27T10:55:26.721Z,46.15
2022-08-27T10:58:30.639Z,44.58
2022-08-27T11:01:21.655Z,45.90
2022-08-27T11:04:12.247Z,47.05
2022-08-27T11:06:55.424Z,46.90
2022-08-27T11:09:28.413Z,47.25
2022-08-27T11:12:17.373Z,46.95
2022-08-27T11:15:13.041Z,48.25
2022-08-27T11:17:52.269Z,47.95
2022-08-27T11:20:33.925Z,48.20
2022-08-27T11:23:22.579Z,48.20
2022-08-27T11:26:04.309Z,45.13
2022-08-27T11:28:49.314Z,45.25
2022-08-27T11:31:34.970Z,48.22
2022-08-27T11:34:30.540Z,48.85
2022-08-27T11:37:38.652Z,47.47
2022-08-27T11:40:48.081Z,47.83
2022-08-27T11:43:24.411Z,49.70
2022-08-27T11:46:11.430Z,50.90
2022-08-27T11:48:42.481Z,50.33
2022-08-27T11:51:20.587Z,51.85
2022-08-27T11:54:06.397Z,51.28
2022-08-27T11:56:57.896Z,50.50
2022-08-27T11:59:40.808Z,51.33
2022-08-27T12:02:59.446Z,54.28
2022-08-27T12:05:44.443Z,50.75
2022-08-27T12:08:37.956Z,52.35
2022-08-27T12:11:43.331Z,51.63
2022-08-27T12:14:33.699Z,52.97
2022-08-27T12:17:30.802Z,53.40
2022-08-27T12:20:42.494Z,50.88
2022-08-27T12:23:42.483Z,52.63
2022-08-27T12:26:35.043Z,52.35
2022-08-27T12:29:27.751Z,51.28
2022-08-27T12:32:31.306Z,54.25
2022-08-27T12:35:19.992Z,53.20
2022-08-27T12:38:29.983Z,51.17
2022-08-27T12:41:26.524Z,51.75
2022-08-27T12:44:19.120Z,53.75
2022-08-27T12:47:05.780Z,55.90
2022-08-27T12:49:55.920Z,55.92
2022-08-27T12:52:46.980Z,56.30
2022-08-27T12:56:19.727Z,55.50
2022-08-27T12:59:07.822Z,55.05
2022-08-27T13:02:22.381Z,51.30
2022-08-27T13:05:10.307Z,53.40
2022-08-27T13:07:57.230Z,53.67
2022-08-27T13:11:14.407Z,55.63
2022-08-27T13:13:47.675Z,52.28
2022-08-27T13:16:18.936Z,53.58
2022-08-27T13:18:59.538Z,50.53
2022-08-27T13:21:37.514Z,51.85
2022-08-27T13:24:09.931Z,49.53
2022-08-27T13:29:32.601Z,46.42
2022-08-27T13:32:03.581Z,46.60
2022-08-27T13:34:42.151Z,46.45
2022-08-27T13:37:30.570Z,46.28
2022-08-27T13:42:31.812Z,44.75
2022-08-27T13:45:32.200Z,43.25
2022-08-27T13:48:12.568Z,43.15
2022-08-27T13:50:55.736Z,44.65
2022-08-27T13:54:18.731Z,45.27
2022-08-27T13:56:49.704Z,47.40
2022-08-27T13:59:20.181Z,45.35
2022-08-27T14:02:06.934Z,46.63
2022-08-27T14:05:16.543Z,46.28
2022-08-27T14:07:56.929Z,46.63
2022-08-27T14:10:59.779Z,45.88
2022-08-27T14:13:45.524Z,43.55
2022-08-27T14:17:01.085Z,43.80
2022-08-27T14:19:38.170Z,43.10
2022-08-27T14:22:05.886Z,45.13
2022-08-27T14:24:44.119Z,43.55
2022-08-27T14:27:15.491Z,43.30
2022-08-27T14:29:54.982Z,45.10
2022-08-27T14:32:42.389Z,41.60
2022-08-27T14:35:12.799Z,43.33
2022-08-27T14:37:44.415Z,44.17
2022-08-27T14:40:27.384Z,43.35
2022-08-27T14:43:01.047Z,43.90
2022-08-27T14:45:45.247Z,43.50
2022-08-27T14:48:38.743Z,45.58
2022-08-27T14:51:23.395Z,44.15
2022-08-27T14:53:51.500Z,45.42
2022-08-27T14:56:19.254Z,43.22
2022-08-27T14:58:46.019Z,42.78
2022-08-27T15:01:13.929Z,44.50
2022-08-27T15:03:46.455Z,43.72
2022-08-27T15:06:13.661Z,44.53
2022-08-27T15:08:41.388Z,44.70
2022-08-27T15:11:23.531Z,43.55
2022-08-27T15:13:52.197Z,44.83
2022-08-27T15:16:35.304Z,45.25
2022-08-27T15:19:02.636Z,45.33
2022-08-27T15:21:30.663Z,46.33
2022-08-27T15:24:02.342Z,44.17
2022-08-27T15:26:29.406Z,46.17
2022-08-27T15:28:56.237Z,46.53
2022-08-27T15:31:23.367Z,44.60
2022-08-27T15:33:50.135Z,44.88
2022-08-27T15:36:16.902Z,44.05
2022-08-27T15:38:43.629Z,45.42
2022-08-27T15:41:10.699Z,43.30
2022-08-27T15:43:38.436Z,41.90
2022-08-27T15:46:05.596Z,41.95
2022-08-27T15:48:32.349Z,38.85
2022-08-27T15:51:13.374Z,41.72
2022-08-27T15:53:42.088Z,41.75
2022-08-27T15:56:09.547Z,42.72
2022-08-27T15:58:37.278Z,40.13
2022-08-27T16:01:12.209Z,40.75
2022-08-27T16:03:39.371Z,38.83
2022-08-27T16:06:06.458Z,38.33
2022-08-27T16:08:36.646Z,38.50
2022-08-27T16:11:09.103Z,38.05
2022-08-27T16:13:35.858Z,34.72
2022-08-27T16:16:02.815Z,36.28
2022-08-27T16:18:32.491Z,37.47
2022-08-27T16:21:00.653Z,35.22
2022-08-27T16:23:28.106Z,35.47
2022-08-27T16:25:56.053Z,37.25
2022-08-27T16:28:24.744Z,38.50
2022-08-27T16:30:52.823Z,38.63
2022-08-27T16:33:20.189Z,41.25
2022-08-27T16:35:47.014Z,38.58
2022-08-27T16:38:14.104Z,38.20
2022-08-27T16:40:49.165Z,36.65
2022-08-27T16:43:21.214Z,39.50
2022-08-27T16:45:50.037Z,42.03
2022-08-27T16:48:35.908Z,43.50
2022-08-27T16:51:04.633Z,43.33
2022-08-27T16:53:34.731Z,44.22
2022-08-27T16:56:01.802Z,43.40
2022-08-27T16:58:30.173Z,43.08
2022-08-27T17:01:01.113Z,44.28
2022-08-27T17:03:28.600Z,43.53
2022-08-27T17:05:55.341Z,42.63
2022-08-27T17:08:26.072Z,45.03
2022-08-27T17:10:54.619Z,44.30
2022-08-27T17:13:28.349Z,44.55
2022-08-27T17:15:56.257Z,44.95
2022-08-27T17:18:27.713Z,45.40
2022-08-27T17:20:55.574Z,45.07
2022-08-27T17:23:36.794Z,47.03
2022-08-27T17:26:05.396Z,48.22
2022-08-27T17:28:32.297Z,49.67
2022-08-27T17:31:00.439Z,49.28
2022-08-27T17:33:36.307Z,49.38
2022-08-27T17:36:03.551Z,51.08
2022-08-27T17:38:34.101Z,50.55
2022-08-27T17:41:06.223Z,50.70
2022-08-27T17:43:32.871Z,53.58
2022-08-27T17:45:59.641Z,54.38
2022-08-27T17:48:26.899Z,55.03
2022-08-27T17:50:54.333Z,52.90
2022-08-27T17:53:21.361Z,55.13
2022-08-27T17:55:48.114Z,53.22
2022-08-27T17:58:15.049Z,54.35
2022-08-27T18:00:45.046Z,187.52
2022-08-27T18:03:18.241Z,80.35
2022-08-27T18:05:46.891Z,79.47
2022-08-27T18:08:14.927Z,80.88
2022-08-27T18:10:42.398Z,51.35
2022-08-27T18:13:10.371Z,49.65
2022-08-27T18:15:39.179Z,45.80
2022-08-27T18:18:07.011Z,47.92
2022-08-27T18:20:36.108Z,47.03
2022-08-27T18:23:03.211Z,47.13
2022-08-27T18:25:35.992Z,46.33
2022-08-27T18:28:06.466Z,47.40
2022-08-27T18:30:33.667Z,46.55
2022-08-27T18:33:02.004Z,46.13
2022-08-27T18:35:30.948Z,45.30
2022-08-27T18:38:02.882Z,42.03
2022-08-27T18:40:32.428Z,39.42
2022-08-27T18:42:59.215Z,37.47
2022-08-27T18:45:28.764Z,36.10
2022-08-27T18:47:58.203Z,43.65
2022-08-27T18:50:25.472Z,38.53
2022-08-27T18:52:54.065Z,39.80
2022-08-27T18:55:24.782Z,36.78
2022-08-27T18:57:51.831Z,38.10
2022-08-27T19:00:19.817Z,39.97
2022-08-27T19:02:52.444Z,42.50
2022-08-27T19:05:29.366Z,39.28
2022-08-27T19:07:57.237Z,34.42
2022-08-27T19:10:25.047Z,35.88
2022-08-27T19:12:51.897Z,35.05
2022-08-27T19:15:19.072Z,32.13
2022-08-27T19:17:50.909Z,33.67
2022-08-27T19:20:18.766Z,32.63
2022-08-27T19:22:47.011Z,32.03
2022-08-27T19:25:14.723Z,30.08
2022-08-27T19:27:41.503Z,26.30
2022-08-27T19:30:08.663Z,25.20
2022-08-27T19:32:35.463Z,23.98
2022-08-27T19:35:02.210Z,25.30
2022-08-27T19:37:30.915Z,24.02
2022-08-27T19:39:57.792Z,23.17
2022-08-27T19:42:25.004Z,22.77
2022-08-27T19:44:52.425Z,22.05
2022-08-27T19:47:27.419Z,21.20
2022-08-27T19:49:55.094Z,21.25
2022-08-27T19:52:27.987Z,22.25
2022-08-27T19:55:13.194Z,22.80
2022-08-27T19:57:47.099Z,23.05
2022-08-27T20:00:20.798Z,21.23
2022-08-27T20:02:56.295Z,23.63
2022-08-27T20:05:24.718Z,22.35
2022-08-27T20:07:52.989Z,24.45
2022-08-27T20:10:31.539Z,24.55
2022-08-27T20:13:03.807Z,25.33
2022-08-27T20:15:31.345Z,25.58
2022-08-27T20:17:59.726Z,25.08
2022-08-27T20:20:28.682Z,24.05
2022-08-27T20:22:56.371Z,25.63
2022-08-27T20:25:24.090Z,25.23
2022-08-27T20:27:52.147Z,24.35
2022-08-27T20:30:22.935Z,25.05
2022-08-27T20:32:50.372Z,24.92
2022-08-27T20:35:18.344Z,25.98
2022-08-27T20:37:46.317Z,23.27
2022-08-27T20:40:18.071Z,23.27
2022-08-27T20:42:44.988Z,24.73
2022-08-27T20:45:12.814Z,24.08
2022-08-27T20:47:40.706Z,23.92
2022-08-27T20:50:08.207Z,24.60
2022-08-27T20:52:36.207Z,24.50
2022-08-27T20:55:03.769Z,23.58
2022-08-27T20:57:30.611Z,22.42
2022-08-27T21:00:16.080Z,22.70
2022-08-27T21:02:42.836Z,22.02
2022-08-27T21:05:14.780Z,22.92
2022-08-27T21:07:42.429Z,24.85
2022-08-27T21:10:09.379Z,24.40
2022-08-27T21:12:36.268Z,22.75
2022-08-27T21:15:05.565Z,24.13
2022-08-27T21:17:32.271Z,24.33
2022-08-27T21:19:59.205Z,22.65
2022-08-27T21:22:26.713Z,21.70
2022-08-27T21:24:53.383Z,23.08
2022-08-27T21:27:21.511Z,21.40
2022-08-27T21:29:48.595Z,22.30
2022-08-27T21:32:15.600Z,25.38
2022-08-27T21:34:42.369Z,23.65
2022-08-27T21:37:11.187Z,25.02
2022-08-27T21:39:38.763Z,24.65
2022-08-27T21:42:05.680Z,24.95
2022-08-27T21:44:32.479Z,24.60
2022-08-27T21:47:00.826Z,25.27
2022-08-27T21:49:28.119Z,26.15
2022-08-27T21:51:54.897Z,26.63
2022-08-27T21:54:21.607Z,26.95
2022-08-27T21:56:52.891Z,25.83
2022-08-27T21:59:20.115Z,24.70
2022-08-27T22:01:47.128Z,26.02
2022-08-27T22:04:14.093Z,25.83
2022-08-27T22:06:40.873Z,26.40
2022-08-27T22:09:07.688Z,27.15
2022-08-27T22:11:34.780Z,24.92
2022-08-27T22:14:01.473Z,26.10
2022-08-27T22:16:29.283Z,24.38
2022-08-27T22:18:57.201Z,23.65
2022-08-27T22:21:24.943Z,23.73
2022-08-27T22:23:52.686Z,24.88
2022-08-27T22:26:21.086Z,24.00
2022-08-27T22:28:48.494Z,24.38
2022-08-27T22:31:15.879Z,25.35
2022-08-27T22:33:42.844Z,23.75
2022-08-27T22:36:10.171Z,23.95
2022-08-27T22:38:37.025Z,24.85
2022-08-27T22:41:05.300Z,23.60
2022-08-27T22:43:31.998Z,25.08
2022-08-27T22:45:58.893Z,24.98
2022-08-27T22:48:25.859Z,23.88
2022-08-27T22:50:55.420Z,23.85
2022-08-27T22:53:22.233Z,24.85
2022-08-27T22:55:50.381Z,26.05
2022-08-27T22:58:17.905Z,22.83
2022-08-27T23:00:50.151Z,24.70
2022-08-27T23:03:19.747Z,23.42
2022-08-27T23:05:46.716Z,25.33
2022-08-27T23:08:14.319Z,22.80
2022-08-27T23:10:42.833Z,25.42
2022-08-27T23:13:10.838Z,26.23
2022-08-27T23:15:38.820Z,25.55
2022-08-27T23:18:06.030Z,27.00
2022-08-27T23:20:32.983Z,29.13
2022-08-27T23:22:59.729Z,24.90
2022-08-27T23:25:45.766Z,25.98
2022-08-27T23:28:14.995Z,26.48
2022-08-27T23:30:43.382Z,28.30
2022-08-27T23:33:10.328Z,30.48
2022-08-27T23:35:37.353Z,29.08
2022-08-27T23:38:04.655Z,31.45
2022-08-27T23:40:31.545Z,31.23
2022-08-27T23:42:58.376Z,30.02
2022-08-27T23:45:25.900Z,32.05
2022-08-27T23:47:52.813Z,31.30
2022-08-27T23:50:21.860Z,32.65
2022-08-27T23:52:58.306Z,31.65
2022-08-27T23:55:25.071Z,33.58
2022-08-27T23:57:51.837Z,32.72
